Time;durP1;ratioP1;P1;durP2;ratioP2;P2;SDS_P1;SDS_P2;PMS_P1;PMS_P2;Temp;Humidity;BMP_temperature;BMP_pressure;BME280_temperature;BME280_humidity;BME280_pressure;Samples;Min_cycle;Max_cycle;Signal;HPM_P1;HPM_P2
2022/11/03 00:02:16;;;;;;;;;5.25;4.50;;;;;14.47;55.90;101107.56;4942671;28;45452;-64
2022/11/03 00:04:42;;;;;;;;;7.00;5.50;;;;;14.50;55.78;101110.09;4942064;28;45286;-64
2022/11/03 00:07:08;;;;;;;;;9.75;5.25;;;;;14.51;56.13;101103.06;4942413;28;46196;-64
2022/11/03 00:09:33;;;;;;;;;5.75;5.00;;;;;14.49;55.78;101110.16;4942045;28;45393;-64
2022/11/03 00:11:58;;;;;;;;;9.00;7.50;;;;;14.44;56.41;101097.91;4942089;28;47841;-64
2022/11/03 00:14:24;;;;;;;;;6.00;5.25;;;;;14.45;56.31;101102.31;4942185;28;45456;-64
2022/11/03 00:16:49;;;;;;;;;6.75;5.00;;;;;14.44;55.92;101102.34;4942045;28;45491;-64
2022/11/03 00:19:15;;;;;;;;;7.00;5.75;;;;;14.44;56.13;101100.56;4941724;28;45387;-64
2022/11/03 00:21:41;;;;;;;;;7.00;5.75;;;;;14.42;56.24;101089.16;4942363;28;45464;-64
2022/11/03 00:24:07;;;;;;;;;7.25;7.00;;;;;14.44;56.57;101091.78;4942048;28;45195;-64
2022/11/03 00:26:34;;;;;;;;;6.75;6.75;;;;;14.44;56.58;101087.34;4941855;28;45243;-64
2022/11/03 00:29:04;;;;;;;;;7.50;6.50;;;;;14.43;56.12;101085.59;4942020;28;45171;-64
2022/11/03 00:31:32;;;;;;;;;7.25;7.00;;;;;14.42;56.67;101088.28;4942175;28;45327;-63
2022/11/03 00:33:59;;;;;;;;;8.00;6.50;;;;;14.39;56.33;101080.41;4940516;28;45214;-64
2022/11/03 00:36:27;;;;;;;;;5.75;5.25;;;;;14.42;56.48;101077.72;4940278;28;47825;-63
2022/11/03 00:38:53;;;;;;;;;6.75;4.75;;;;;14.38;56.45;101062.84;4941771;28;45298;-63
2022/11/03 00:41:20;;;;;;;;;6.50;5.75;;;;;14.41;56.83;101070.69;4941951;28;45253;-63
2022/11/03 00:43:46;;;;;;;;;6.00;5.50;;;;;14.41;56.40;101068.03;4941903;28;45368;-63
2022/11/03 00:46:12;;;;;;;;;5.00;5.00;;;;;14.38;56.50;101068.97;4941715;28;45374;-63
2022/11/03 00:48:38;;;;;;;;;10.50;6.75;;;;;14.38;56.50;101061.06;4941498;28;45351;-64
2022/11/03 00:51:15;;;;;;;;;6.00;5.25;;;;;14.35;56.75;101058.50;4941712;28;45244;-65
2022/11/03 00:53:44;;;;;;;;;6.50;6.00;;;;;14.39;56.96;101051.34;4941613;28;45470;-64
2022/11/03 00:56:13;;;;;;;;;8.75;8.25;;;;;14.38;57.06;101045.19;4941479;28;45395;-64
2022/11/03 00:58:38;;;;;;;;;7.00;6.00;;;;;14.38;56.74;101039.06;4941329;28;45163;-64
2022/11/03 01:01:08;;;;;;;;;7.25;7.00;;;;;14.38;56.79;101039.91;4941782;28;45240;-63
2022/11/03 01:03:36;;;;;;;;;8.00;7.00;;;;;14.37;56.96;101026.72;4941509;28;45322;-63
2022/11/03 01:08:48;;;;;;;;;10.50;7.00;;;;;14.32;56.96;101018.06;4941619;28;45295;-64
2022/11/03 01:14:01;;;;;;;;;14.25;8.50;;;;;14.33;56.82;101007.44;4941538;28;45351;-64
2022/11/03 01:16:28;;;;;;;;;9.25;7.75;;;;;14.32;57.34;101007.47;4941019;28;45402;-64
2022/11/03 01:18:53;;;;;;;;;9.25;8.75;;;;;14.29;56.89;100997.84;4941485;28;45349;-64
2022/11/03 01:21:18;;;;;;;;;12.50;9.50;;;;;14.32;57.12;100991.63;4941064;28;45349;-64
2022/11/03 01:23:44;;;;;;;;;8.00;6.25;;;;;14.24;57.24;100986.53;4941597;28;45507;-64
2022/11/03 01:26:11;;;;;;;;;9.50;7.00;;;;;14.31;57.53;100996.03;4941135;28;46291;-64
2022/11/03 01:28:38;;;;;;;;;10.25;8.75;;;;;14.31;57.02;100988.09;4941328;28;45444;-64
2022/11/03 01:31:13;;;;;;;;;7.25;6.00;;;;;14.32;57.48;100975.75;4944025;28;45327;-64
2022/11/03 01:33:39;;;;;;;;;5.75;5.75;;;;;14.27;57.18;100979.38;4944795;28;45176;-64
2022/11/03 01:36:04;;;;;;;;;9.00;5.50;;;;;14.29;57.19;100974.06;4944127;28;46136;-64
2022/11/03 01:38:32;;;;;;;;;7.00;5.50;;;;;14.30;57.10;100971.38;4944636;28;45250;-64
2022/11/03 01:40:57;;;;;;;;;6.75;5.75;;;;;14.29;57.16;100966.13;4944704;28;45441;-64
2022/11/03 01:43:24;;;;;;;;;7.50;5.00;;;;;14.29;57.64;100967.00;4944638;28;45367;-64
2022/11/03 01:45:55;;;;;;;;;5.25;5.25;;;;;14.26;57.70;100951.22;4944372;28;47129;-63
2022/11/03 01:48:21;;;;;;;;;5.75;4.75;;;;;14.28;57.21;100952.03;4959204;28;45214;-63
2022/11/03 01:50:47;;;;;;;;;5.50;5.00;;;;;14.28;57.87;100951.19;4944452;28;45366;-63
2022/11/03 01:53:15;;;;;;;;;6.00;4.25;;;;;14.28;57.79;100941.47;4944333;28;45322;-64
2022/11/03 01:55:41;;;;;;;;;5.75;5.75;;;;;14.31;57.73;100935.22;4944163;28;45290;-64
2022/11/03 01:58:12;;;;;;;;;2.50;2.50;;;;;14.32;57.85;100930.81;4944259;28;45211;-64
2022/11/03 02:00:41;;;;;;;;;9.75;5.00;;;;;14.30;57.85;100929.06;4944380;28;45435;-63
2022/11/03 02:03:08;;;;;;;;;7.50;6.00;;;;;14.28;57.75;100916.81;4942813;28;45329;-64
2022/11/03 02:05:34;;;;;;;;;7.75;6.75;;;;;14.31;57.56;100916.72;4944093;28;45297;-64
2022/11/03 02:08:11;;;;;;;;;7.75;5.50;;;;;14.30;57.59;100900.00;4944070;28;45477;-65
2022/11/03 02:10:37;;;;;;;;;5.75;5.75;;;;;14.31;57.70;100900.84;4944258;28;45299;-63
2022/11/03 02:13:11;;;;;;;;;6.50;6.00;;;;;14.29;57.64;100903.53;4943824;28;45500;-63
2022/11/03 02:15:38;;;;;;;;;6.25;5.50;;;;;14.30;57.42;100905.28;4943845;28;45649;-66
2022/11/03 02:18:05;;;;;;;;;6.50;5.75;;;;;14.30;57.50;100897.34;4944121;28;45311;-65
2022/11/03 02:20:32;;;;;;;;;7.00;5.50;;;;;14.29;57.89;100892.97;4943817;28;45309;-65
2022/11/03 02:23:22;;;;;;;;;7.50;6.00;;;;;14.29;57.62;100886.84;4943805;28;45405;-64
2022/11/03 02:25:51;;;;;;;;;5.50;4.75;;;;;14.26;57.89;100882.50;4943492;28;45378;-64
2022/11/03 02:28:19;;;;;;;;;11.75;6.25;;;;;14.29;57.72;100882.41;4943820;28;45186;-63
2022/11/03 02:31:09;;;;;;;;;6.25;6.00;;;;;14.30;57.77;100875.31;4943822;28;45255;-64
2022/11/03 02:33:52;;;;;;;;;8.50;6.75;;;;;14.30;57.39;100873.56;4943724;28;45641;-64
2022/11/03 02:36:29;;;;;;;;;5.75;5.50;;;;;14.30;57.55;100864.75;4943479;28;45454;-64
2022/11/03 02:39:08;;;;;;;;;5.50;5.50;;;;;14.29;57.52;100858.63;4943516;28;45271;-64
2022/11/03 02:41:35;;;;;;;;;8.75;6.00;;;;;14.28;57.74;100856.88;4943405;28;45525;-64
2022/11/03 02:44:03;;;;;;;;;5.50;3.75;;;;;14.29;57.40;100849.81;4943520;28;45572;-64
2022/11/03 02:46:30;;;;;;;;;8.00;5.00;;;;;14.29;57.75;100850.69;4943485;28;45271;-64
2022/11/03 02:48:56;;;;;;;;;5.75;3.25;;;;;14.25;57.88;100849.03;4943211;28;45329;-63
2022/11/03 02:51:22;;;;;;;;;7.00;7.00;;;;;14.28;57.70;100841.00;4943315;28;45331;-64
2022/11/03 02:54:10;;;;;;;;;4.50;4.50;;;;;14.29;57.67;100836.63;4943507;28;45401;-64
2022/11/03 02:56:46;;;;;;;;;8.25;6.25;;;;;14.24;57.67;100826.16;4942957;28;46124;-64
2022/11/03 02:59:16;;;;;;;;;4.75;4.75;;;;;14.27;57.53;100823.41;4943330;28;45338;-64
2022/11/03 03:01:51;;;;;;;;;6.00;6.00;;;;;14.28;57.82;100817.22;4943575;28;45224;-64
2022/11/03 03:04:33;;;;;;;;;8.00;5.75;;;;;14.29;57.51;100813.69;4943370;28;45315;-66
2022/11/03 03:07:08;;;;;;;;;7.25;5.00;;;;;14.24;57.99;100807.66;4943057;28;46150;-63
2022/11/03 03:09:45;;;;;;;;;6.25;4.50;;;;;14.22;58.19;100804.19;4943198;28;45266;-64
2022/11/03 03:12:16;;;;;;;;;6.75;5.25;;;;;14.24;57.70;100790.94;4943238;28;45385;-63
2022/11/03 03:14:44;;;;;;;;;5.00;5.00;;;;;14.23;57.69;100779.50;4943270;28;45595;-63
2022/11/03 03:17:22;;;;;;;;;9.25;5.75;;;;;14.20;58.24;100768.13;4942928;28;45430;-63
2022/11/03 03:20:12;;;;;;;;;6.50;5.25;;;;;14.21;57.94;100762.78;4942693;28;45180;-63
2022/11/03 03:22:50;;;;;;;;;8.75;6.00;;;;;14.23;57.85;100763.63;4943145;28;45332;-63
2022/11/03 03:25:37;;;;;;;;;7.75;6.25;;;;;14.23;58.11;100754.84;4942593;28;45536;-63
2022/11/03 03:28:07;;;;;;;;;7.00;4.75;;;;;14.23;57.93;100762.78;4941639;28;45658;-63
2022/11/03 03:30:35;;;;;;;;;5.50;5.50;;;;;14.19;58.22;100745.25;4942969;28;45325;-63
2022/11/03 03:33:03;;;;;;;;;7.50;7.00;;;;;14.18;57.84;100736.47;4943009;28;45301;-63
2022/11/03 03:35:31;;;;;;;;;5.00;4.50;;;;;14.17;58.23;100728.59;4942550;28;45583;-63
2022/11/03 03:38:02;;;;;;;;;5.75;5.75;;;;;14.11;58.33;100708.50;4942701;28;46122;-64
2022/11/03 03:40:36;;;;;;;;;8.25;4.75;;;;;14.11;58.32;100697.91;4942537;28;45230;-63
2022/11/03 03:43:04;;;;;;;;;5.00;5.00;;;;;14.12;58.46;100697.91;4943012;28;45243;-63
2022/11/03 03:45:30;;;;;;;;;3.75;3.75;;;;;14.16;58.32;100689.88;4942558;28;45568;-63
2022/11/03 03:47:56;;;;;;;;;6.75;5.25;;;;;14.14;58.00;100697.84;4940993;28;45470;-64
2022/11/03 03:50:24;;;;;;;;;6.00;4.25;;;;;14.17;58.20;100692.44;4942345;28;45311;-64
2022/11/03 03:52:56;;;;;;;;;6.00;5.75;;;;;14.16;58.01;100697.78;4941810;28;45428;-64
2022/11/03 03:55:26;;;;;;;;;5.75;5.50;;;;;14.12;58.27;100684.69;4942372;28;45429;-63
2022/11/03 03:57:51;;;;;;;;;6.75;4.25;;;;;14.14;58.10;100689.91;4941278;28;45372;-63
2022/11/03 04:00:18;;;;;;;;;8.00;6.00;;;;;14.14;58.07;100703.13;4942329;28;45416;-63
2022/11/03 04:02:43;;;;;;;;;8.25;7.00;;;;;14.13;58.18;100712.81;4942626;28;45158;-64
2022/11/03 04:05:08;;;;;;;;;6.00;5.00;;;;;14.14;58.03;100717.19;4942095;28;45187;-63
2022/11/03 04:07:45;;;;;;;;;6.25;5.25;;;;;14.17;58.21;100713.59;4942506;28;46055;-64
2022/11/03 04:10:11;;;;;;;;;6.50;5.00;;;;;14.16;58.49;100708.38;4942358;28;45525;-63
2022/11/03 04:23:35;;;;;;;;;7.25;7.25;;;;;14.14;58.16;100693.41;4942342;28;45299;-63
2022/11/03 04:26:01;;;;;;;;;6.25;5.25;;;;;14.12;58.36;100691.72;4941780;28;46452;-63
2022/11/03 04:28:26;;;;;;;;;7.50;6.00;;;;;14.15;58.32;100681.09;4942128;28;46106;-63
2022/11/03 04:30:56;;;;;;;;;9.00;5.75;;;;;14.17;58.09;100686.31;4941952;28;45275;-63
2022/11/03 04:33:21;;;;;;;;;6.75;4.00;;;;;14.18;58.58;100670.41;4942109;28;45235;-63
2022/11/03 04:35:47;;;;;;;;;5.00;5.00;;;;;14.14;58.42;100658.22;4941649;28;45330;-63
2022/11/03 04:38:12;;;;;;;;;6.50;5.25;;;;;14.15;58.21;100654.66;4940743;28;46139;-63
2022/11/03 04:40:43;;;;;;;;;6.75;6.75;;;;;14.16;58.34;100650.22;4941789;28;45365;-63
2022/11/03 04:43:17;;;;;;;;;9.00;5.00;;;;;14.16;58.28;100640.50;4942229;28;45420;-63
2022/11/03 04:45:45;;;;;;;;;8.25;6.25;;;;;14.17;58.54;100644.03;4941745;28;45355;-63
2022/11/03 04:48:13;;;;;;;;;8.50;5.75;;;;;14.11;58.67;100629.22;4941540;28;46518;-63
2022/11/03 04:50:40;;;;;;;;;9.75;6.00;;;;;14.14;58.30;100623.84;4941525;28;45240;-63
2022/11/03 04:53:13;;;;;;;;;10.50;7.75;;;;;14.16;58.35;100619.38;4942031;28;45253;-63
2022/11/03 04:55:42;;;;;;;;;5.75;4.75;;;;;14.16;58.53;100614.09;4941430;28;45448;-63
2022/11/03 04:58:33;;;;;;;;;7.25;6.50;;;;;14.16;58.82;100619.38;4941438;28;46143;-64
2022/11/03 05:01:01;;;;;;;;;6.50;4.50;;;;;14.13;58.34;100611.53;4941802;28;45281;-63
2022/11/03 05:03:33;;;;;;;;;6.25;6.00;;;;;14.13;58.74;100612.41;4940157;28;45377;-64
2022/11/03 05:06:08;;;;;;;;;3.75;3.75;;;;;14.14;58.51;100608.00;4941445;28;45306;-63
2022/11/03 05:08:33;;;;;;;;;7.25;6.75;;;;;14.12;58.77;100591.31;4941373;28;46430;-63
2022/11/03 05:10:59;;;;;;;;;5.25;4.00;;;;;14.11;58.85;100582.53;4941510;28;47823;-63
2022/11/03 05:13:26;;;;;;;;;5.00;5.00;;;;;14.11;58.88;100584.28;4941418;28;45658;-63
2022/11/03 05:15:56;;;;;;;;;6.50;5.25;;;;;14.12;58.44;100586.91;4941598;28;45335;-63
2022/11/03 05:18:49;;;;;;;;;10.75;6.00;;;;;14.11;58.62;100576.38;4941246;28;46228;-63
2022/11/03 05:21:20;;;;;;;;;5.00;3.50;;;;;14.12;58.17;100578.97;4936882;28;45359;-64
2022/11/03 05:23:51;;;;;;;;;6.75;6.75;;;;;14.12;58.43;100580.75;4941501;28;45298;-63
2022/11/03 05:26:25;;;;;;;;;4.00;4.00;;;;;14.10;58.63;100569.34;4941223;28;45393;-63
2022/11/03 05:29:23;;;;;;;;;9.00;5.75;;;;;14.11;58.84;100571.09;4940021;28;47337;-64
2022/11/03 05:31:50;;;;;;;;;4.75;4.00;;;;;14.11;58.87;100558.75;4936065;28;45556;-63
2022/11/03 05:34:21;;;;;;;;;4.75;4.75;;;;;14.10;59.00;100550.84;4941210;28;45421;-63
2022/11/03 05:36:47;;;;;;;;;7.25;5.75;;;;;14.09;58.61;100541.22;4941101;28;45396;-63
2022/11/03 05:39:35;;;;;;;;;6.25;5.00;;;;;14.07;59.01;100532.47;4940984;28;46177;-63
2022/11/03 05:42:02;;;;;;;;;6.50;5.00;;;;;14.07;58.65;100529.81;4941140;28;45317;-63
2022/11/03 05:44:27;;;;;;;;;8.50;5.75;;;;;14.05;58.25;100521.97;4941363;28;45337;-63
2022/11/03 05:46:52;;;;;;;;;5.75;4.50;;;;;14.06;58.57;100528.09;4940935;28;45497;-63
2022/11/03 05:49:18;;;;;;;;;8.25;6.00;;;;;14.03;58.36;100504.44;4940671;28;46129;-63
2022/11/03 05:51:44;;;;;;;;;7.00;6.00;;;;;14.01;58.94;100496.53;4941094;28;45421;-63
2022/11/03 05:54:21;;;;;;;;;6.50;5.50;;;;;14.01;58.86;100490.41;4941324;28;45382;-63
2022/11/03 05:56:47;;;;;;;;;6.00;5.00;;;;;14.01;58.68;100490.41;4940819;28;45400;-63
2022/11/03 05:59:16;;;;;;;;;8.75;6.25;;;;;13.95;58.79;100487.03;4940902;28;46310;-63
2022/11/03 06:01:41;;;;;;;;;6.75;5.00;;;;;13.89;58.85;100467.91;4940981;28;45251;-63
2022/11/03 06:04:31;;;;;;;;;2.00;2.00;;;;;13.97;59.13;100479.06;4941071;28;45338;-63
2022/11/03 06:07:04;;;;;;;;;5.75;5.75;;;;;13.93;58.86;100483.56;4940700;28;45577;-63
2022/11/03 06:09:32;;;;;;;;;7.00;6.00;;;;;13.94;59.08;100485.31;4940711;28;45330;-63
2022/11/03 06:12:00;;;;;;;;;9.25;5.25;;;;;13.91;59.32;100484.53;4940692;28;45330;-63
2022/11/03 06:14:28;;;;;;;;;6.00;6.00;;;;;13.90;59.25;100486.31;4940809;28;45247;-63
2022/11/03 06:17:00;;;;;;;;;4.75;3.75;;;;;13.88;59.10;100474.94;4942988;28;45362;-63
2022/11/03 06:19:43;;;;;;;;;6.75;5.00;;;;;13.88;58.96;100472.28;4943512;28;45235;-63
2022/11/03 06:22:17;;;;;;;;;8.00;5.00;;;;;13.86;59.31;100470.63;4944125;28;45178;-63
2022/11/03 06:24:44;;;;;;;;;6.00;5.00;;;;;13.87;59.38;100461.78;4943937;28;45372;-63
2022/11/03 06:27:20;;;;;;;;;5.00;5.00;;;;;13.82;58.71;100454.00;4943893;28;45322;-63
2022/11/03 06:29:50;;;;;;;;;6.00;5.00;;;;;13.84;59.37;100456.63;4943640;28;46308;-62
2022/11/03 06:32:15;;;;;;;;;8.25;6.50;;;;;13.81;59.07;100452.25;4943751;28;45430;-64
2022/11/03 06:34:48;;;;;;;;;7.25;5.75;;;;;13.82;59.05;100435.50;4943839;28;45514;-62
2022/11/03 06:37:22;;;;;;;;;1.00;0.00;;;;;13.80;59.16;100435.56;4943543;28;45456;-63
2022/11/03 06:39:48;;;;;;;;;7.25;4.50;;;;;13.80;58.82;100432.94;4943844;28;46544;-63
2022/11/03 06:42:16;;;;;;;;;6.00;4.00;;;;;13.73;59.04;100419.97;4943518;28;45464;-63
2022/11/03 06:44:46;;;;;;;;;6.00;4.50;;;;;13.80;59.13;100425.00;4942576;28;45343;-63
2022/11/03 06:47:25;;;;;;;;;6.50;5.50;;;;;13.79;58.79;100418.00;4943404;28;45508;-63
2022/11/03 06:49:53;;;;;;;;;8.00;5.25;;;;;13.78;59.03;100425.97;4943410;28;45242;-62
2022/11/03 06:52:36;;;;;;;;;3.75;3.75;;;;;13.74;59.44;100417.28;4943377;28;45445;-62
2022/11/03 06:55:07;;;;;;;;;6.75;6.75;;;;;13.73;59.44;100406.78;4943567;28;45339;-63
2022/11/03 06:57:38;;;;;;;;;5.75;3.75;;;;;13.72;59.23;100411.22;4943318;28;45406;-63
2022/11/03 07:00:19;;;;;;;;;7.50;5.25;;;;;13.70;59.30;100406.84;4943233;28;45346;-62
2022/11/03 07:02:55;;;;;;;;;5.50;3.50;;;;;13.71;59.40;100398.03;4943299;28;45414;-62
2022/11/03 07:05:23;;;;;;;;;7.75;5.00;;;;;13.71;58.97;100400.66;4943383;28;45335;-62
2022/11/03 07:08:02;;;;;;;;;8.75;5.25;;;;;13.70;59.37;100386.63;4943273;28;45456;-62
2022/11/03 07:10:31;;;;;;;;;4.75;4.75;;;;;13.71;59.58;100374.25;4943165;28;46231;-62
2022/11/03 07:13:01;;;;;;;;;6.50;4.50;;;;;13.65;59.47;100354.22;4943030;28;45630;-62
2022/11/03 07:15:32;;;;;;;;;5.00;4.00;;;;;13.70;59.40;100362.84;4943415;28;45382;-62
2022/11/03 07:17:59;;;;;;;;;5.75;4.50;;;;;13.72;59.30;100370.72;4943123;28;45298;-63
2022/11/03 07:20:25;;;;;;;;;5.75;2.50;;;;;13.66;59.42;100371.78;4942792;28;45345;-63
2022/11/03 07:22:52;;;;;;;;;4.00;3.50;;;;;13.65;59.34;100368.28;4943148;28;45243;-63
2022/11/03 07:25:20;;;;;;;;;7.75;5.00;;;;;13.67;59.05;100362.94;4943382;28;45389;-63
2022/11/03 07:27:50;;;;;;;;;4.00;4.00;;;;;13.69;58.94;100341.78;4941276;28;45550;-62
2022/11/03 07:30:29;;;;;;;;;7.25;4.25;;;;;13.67;59.40;100344.44;4941574;28;47470;-62
2022/11/03 07:33:00;;;;;;;;;4.25;4.25;;;;;13.63;59.31;100348.13;4942676;28;45402;-63
2022/11/03 07:35:30;;;;;;;;;5.50;5.00;;;;;13.63;59.40;100343.72;4942715;28;45425;-63
2022/11/03 07:37:57;;;;;;;;;5.00;4.00;;;;;13.67;59.44;100343.59;4942877;28;45342;-63
2022/11/03 07:40:27;;;;;;;;;5.50;3.00;;;;;13.64;59.22;100324.28;4942616;28;46307;-63
2022/11/03 07:42:57;;;;;;;;;5.25;4.50;;;;;13.68;59.15;100329.50;4942703;28;45270;-62
2022/11/03 07:45:40;;;;;;;;;5.00;5.00;;;;;13.68;59.04;100314.50;4942742;28;45434;-63
2022/11/03 07:48:33;;;;;;;;;6.75;4.25;;;;;13.72;59.15;100307.34;4941482;28;45378;-63
2022/11/03 07:51:05;;;;;;;;;3.00;3.00;;;;;13.72;58.89;100313.50;4940991;28;46720;-62
2022/11/03 07:53:41;;;;;;;;;6.75;5.50;;;;;13.74;59.31;100313.44;4942457;28;45183;-62
2022/11/03 07:56:25;;;;;;;;;5.75;5.00;;;;;13.70;59.46;100307.41;4942579;28;45344;-64
2022/11/03 07:58:59;;;;;;;;;4.50;3.00;;;;;13.69;59.43;100308.31;4942356;28;45495;-62
2022/11/03 08:01:26;;;;;;;;;5.00;5.00;;;;;13.72;58.91;100294.13;4942161;28;46425;-64
2022/11/03 08:03:55;;;;;;;;;5.50;4.00;;;;;13.71;59.06;100292.41;4941102;28;45331;-63
2022/11/03 08:06:21;;;;;;;;;4.00;4.00;;;;;13.75;59.28;100294.06;4942211;28;45330;-63
2022/11/03 08:08:46;;;;;;;;;5.00;4.00;;;;;13.76;59.05;100298.38;4942372;28;45350;-63
2022/11/03 08:11:11;;;;;;;;;4.00;4.00;;;;;13.79;59.33;100287.75;4942055;28;45416;-63
2022/11/03 08:13:37;;;;;;;;;4.00;4.00;;;;;13.82;59.09;100275.28;4942402;28;45261;-63
2022/11/03 08:16:02;;;;;;;;;6.75;5.00;;;;;13.87;58.76;100290.97;4942161;28;45214;-63
2022/11/03 08:18:27;;;;;;;;;5.75;5.75;;;;;13.79;59.20;100263.97;4942281;28;45440;-63
2022/11/03 08:20:53;;;;;;;;;4.25;4.00;;;;;13.90;58.85;100274.13;4941790;28;46067;-63
2022/11/03 08:23:18;;;;;;;;;8.00;5.00;;;;;13.90;59.15;100277.66;4942287;28;45410;-63
2022/11/03 08:25:44;;;;;;;;;4.50;4.00;;;;;13.93;58.73;100263.47;4942163;28;45453;-63
2022/11/03 08:28:09;;;;;;;;;5.00;4.50;;;;;13.92;58.68;100254.72;4942111;28;45172;-64
2022/11/03 08:30:34;;;;;;;;;4.50;4.50;;;;;13.92;59.10;100249.41;4942043;28;45187;-64
2022/11/03 08:33:00;;;;;;;;;4.75;3.75;;;;;13.92;58.73;100246.78;4942191;28;47253;-64
2022/11/03 08:35:25;;;;;;;;;3.50;3.50;;;;;13.94;58.99;100247.56;4941924;28;45248;-64
2022/11/03 08:37:51;;;;;;;;;9.50;8.00;;;;;14.03;59.08;100256.09;4942090;28;45218;-64
2022/11/03 08:40:16;;;;;;;;;5.00;4.50;;;;;14.04;58.95;100263.09;4941042;28;57242;-64
2022/11/03 08:42:41;;;;;;;;;6.00;4.00;;;;;14.10;58.94;100268.13;4941774;28;49768;-64
2022/11/03 08:45:07;;;;;;;;;4.75;4.00;;;;;14.12;58.98;100255.75;4942077;28;45425;-64
2022/11/03 08:47:32;;;;;;;;;5.50;4.00;;;;;14.12;58.42;100239.91;4941737;28;45524;-63
2022/11/03 08:49:59;;;;;;;;;6.50;4.75;;;;;14.18;58.41;100239.66;4940510;28;46055;-64
2022/11/03 08:52:25;;;;;;;;;5.00;5.00;;;;;14.16;58.68;100216.88;4941956;28;45381;-64
2022/11/03 08:54:50;;;;;;;;;3.25;3.00;;;;;14.23;58.66;100213.09;4941560;28;45258;-64
2022/11/03 08:57:15;;;;;;;;;4.25;4.00;;;;;14.26;58.71;100212.94;4941154;28;45286;-64
2022/11/03 08:59:40;;;;;;;;;2.00;2.00;;;;;14.30;58.68;100204.84;4941342;28;46103;-63
2022/11/03 09:02:06;;;;;;;;;4.25;4.25;;;;;14.32;58.14;100196.84;4941278;28;45427;-63
2022/11/03 09:04:31;;;;;;;;;6.25;4.25;;;;;14.39;58.22;100192.19;4941177;28;45404;-63
2022/11/03 09:06:56;;;;;;;;;4.50;4.00;;;;;14.39;58.12;100185.13;4941531;28;45201;-63
2022/11/03 09:09:22;;;;;;;;;3.00;2.50;;;;;14.49;58.09;100190.94;4941289;28;45963;-63
2022/11/03 09:11:47;;;;;;;;;5.25;3.25;;;;;14.50;58.49;100174.13;4940970;28;45165;-63
2022/11/03 09:14:13;;;;;;;;;5.00;4.00;;;;;14.56;58.07;100175.69;4941340;28;45302;-63
2022/11/03 09:16:38;;;;;;;;;4.75;4.75;;;;;14.58;58.39;100164.13;4941043;28;45358;-62
2022/11/03 09:19:04;;;;;;;;;5.00;4.50;;;;;14.62;58.45;100160.41;4940961;28;49034;-63
2022/11/03 09:21:29;;;;;;;;;6.50;6.25;;;;;14.68;58.45;100159.38;4940988;28;45219;-64
2022/11/03 09:23:54;;;;;;;;;8.75;6.50;;;;;14.72;57.89;100155.66;4939878;28;45181;-64
2022/11/03 09:26:20;;;;;;;;;4.50;3.50;;;;;14.75;57.88;100144.09;4940976;28;45645;-63
2022/11/03 09:28:46;;;;;;;;;5.75;4.50;;;;;14.78;57.78;100131.59;4940869;28;47205;-63
2022/11/03 09:31:11;;;;;;;;;8.50;6.75;;;;;14.85;57.92;100132.19;4940906;28;45272;-63
2022/11/03 09:33:37;;;;;;;;;4.75;3.75;;;;;14.87;58.04;100127.72;4941150;28;45334;-64
2022/11/03 09:36:02;;;;;;;;;2.00;2.00;;;;;14.91;57.71;100124.00;4940524;28;45525;-63
2022/11/03 09:38:28;;;;;;;;;3.00;2.50;;;;;14.91;58.09;100115.22;4940980;28;47330;-63
2022/11/03 09:40:54;;;;;;;;;2.75;2.50;;;;;14.95;58.17;100108.88;4939286;28;45274;-63
2022/11/03 09:43:19;;;;;;;;;5.75;4.25;;;;;14.97;57.89;100108.81;4941089;28;45434;-63
2022/11/03 09:45:44;;;;;;;;;4.50;4.50;;;;;15.03;57.50;100111.19;4940658;28;45329;-63
2022/11/03 09:48:11;;;;;;;;;4.75;4.00;;;;;15.06;58.00;100101.34;4940681;28;45412;-63
2022/11/03 09:50:37;;;;;;;;;5.00;4.00;;;;;15.07;57.57;100089.84;4941073;28;45255;-63
2022/11/03 09:53:03;;;;;;;;;4.50;4.00;;;;;15.09;57.41;100092.41;4944156;28;45199;-63
2022/11/03 09:55:28;;;;;;;;;5.50;3.75;;;;;15.15;57.82;100089.50;4943860;28;45391;-63
2022/11/03 09:58:00;;;;;;;;;4.50;4.50;;;;;15.15;57.36;100086.84;4943823;28;46396;-63
2022/11/03 10:00:26;;;;;;;;;3.25;3.25;;;;;15.12;57.46;100079.06;4943946;28;45267;-63
2022/11/03 10:02:53;;;;;;;;;5.25;5.25;;;;;15.19;57.63;100080.50;4944099;28;45309;-63
2022/11/03 10:05:26;;;;;;;;;3.50;3.50;;;;;15.22;57.81;100083.00;4943667;28;45461;-63
2022/11/03 10:07:57;;;;;;;;;4.25;2.50;;;;;15.22;57.74;100074.19;4943540;28;45317;-63
2022/11/03 10:10:24;;;;;;;;;7.25;6.00;;;;;15.24;57.63;100067.94;4943696;28;45334;-63
2022/11/03 10:12:51;;;;;;;;;3.75;2.75;;;;;15.26;57.32;100060.78;4943576;28;45346;-63
2022/11/03 10:15:19;;;;;;;;;4.50;3.00;;;;;15.30;57.44;100060.66;4943772;28;45602;-63
2022/11/03 10:17:45;;;;;;;;;5.00;3.00;;;;;15.30;57.47;100058.00;4943479;28;45350;-63
2022/11/03 10:20:16;;;;;;;;;6.50;5.75;;;;;15.32;56.84;100054.34;4943272;28;45220;-63
2022/11/03 10:22:44;;;;;;;;;5.75;5.75;;;;;15.39;56.86;100055.78;4943435;28;45237;-63
2022/11/03 10:25:32;;;;;;;;;7.25;6.00;;;;;15.42;57.18;100039.78;4943650;28;45278;-63
2022/11/03 10:28:16;;;;;;;;;4.25;3.75;;;;;15.43;56.67;100043.25;4943270;28;46448;-63
2022/11/03 10:30:58;;;;;;;;;3.75;2.75;;;;;15.46;56.60;100029.03;4943364;28;45265;-63
2022/11/03 10:33:39;;;;;;;;;2.50;2.50;;;;;15.46;56.85;100029.03;4943575;28;45558;-64
2022/11/03 10:36:28;;;;;;;;;1.00;1.00;;;;;15.53;56.92;100031.31;4943043;28;45256;-63
2022/11/03 10:38:54;;;;;;;;;3.75;3.75;;;;;15.57;56.40;100027.63;4943049;28;47409;-64
2022/11/03 10:41:25;;;;;;;;;4.00;3.50;;;;;15.59;56.56;100031.03;4943120;28;45259;-64
2022/11/03 10:44:01;;;;;;;;;2.75;2.75;;;;;15.63;56.39;100022.97;4943493;28;45444;-63
2022/11/03 10:46:27;;;;;;;;;4.25;3.00;;;;;15.59;56.23;100007.19;4942965;28;45328;-64
2022/11/03 10:49:13;;;;;;;;;6.50;4.00;;;;;15.69;56.52;100022.69;4942879;28;46143;-64
2022/11/03 10:51:40;;;;;;;;;2.00;2.00;;;;;15.72;56.19;99994.25;4943009;28;45272;-64
2022/11/03 10:54:13;;;;;;;;;3.50;3.50;;;;;15.77;56.06;99994.03;4943332;28;45339;-65
2022/11/03 10:56:39;;;;;;;;;5.50;4.50;;;;;15.77;56.31;100007.28;4942788;28;45325;-65
2022/11/03 10:59:05;;;;;;;;;5.50;3.75;;;;;15.78;56.12;99998.41;4942866;28;46123;-65
2022/11/03 11:01:30;;;;;;;;;2.75;2.75;;;;;15.82;56.11;99993.84;4942649;28;45144;-65
2022/11/03 11:03:56;;;;;;;;;4.25;4.00;;;;;15.89;56.49;99995.28;4943158;28;45245;-64
2022/11/03 11:06:28;;;;;;;;;6.50;4.00;;;;;15.97;56.17;100003.69;4942578;28;45511;-65
2022/11/03 11:09:03;;;;;;;;;4.00;4.00;;;;;15.99;56.13;99988.59;4942835;28;46193;-65
2022/11/03 11:11:29;;;;;;;;;5.25;5.00;;;;;16.01;55.89;100002.63;4942782;28;45260;-66
2022/11/03 11:14:23;;;;;;;;;6.00;6.00;;;;;16.05;55.70;99963.56;4943130;28;45334;-65
2022/11/03 11:16:56;;;;;;;;;6.75;6.25;;;;;16.04;56.09;99986.56;4942815;28;45176;-64
2022/11/03 11:19:23;;;;;;;;;5.50;4.50;;;;;16.12;55.85;99972.94;4942335;28;46302;-64
2022/11/03 11:21:57;;;;;;;;;10.75;8.50;;;;;16.16;56.03;99982.47;4942627;28;45247;-64
2022/11/03 11:24:49;;;;;;;;;12.25;7.25;;;;;16.19;55.73;99971.72;4942702;28;45310;-65
2022/11/03 11:27:39;;;;;;;;;4.25;2.00;;;;;16.22;55.86;99965.41;4939038;28;46313;-65
2022/11/03 11:30:26;;;;;;;;;7.25;5.75;;;;;16.27;55.85;99968.69;4942452;28;45333;-65
2022/11/03 11:33:00;;;;;;;;;5.50;4.50;;;;;16.32;55.83;99969.31;4942121;28;45370;-65
2022/11/03 11:35:25;;;;;;;;;3.50;3.50;;;;;16.33;55.84;99957.75;4942416;28;45381;-65
2022/11/03 11:37:51;;;;;;;;;6.00;5.50;;;;;16.29;56.08;99955.34;4942245;28;45274;-65
2022/11/03 11:40:22;;;;;;;;;5.00;5.00;;;;;16.35;55.84;99952.38;4942451;28;45438;-65
2022/11/03 11:43:00;;;;;;;;;6.50;5.00;;;;;16.36;56.13;99949.66;4942253;28;45465;-65
2022/11/03 11:46:02;;;;;;;;;5.50;5.50;;;;;16.35;56.03;99939.13;4942336;28;45240;-65
2022/11/03 11:48:28;;;;;;;;;7.00;5.75;;;;;16.42;56.07;99940.53;4941903;28;45343;-65
2022/11/03 11:50:56;;;;;;;;;6.25;6.25;;;;;16.42;56.35;99930.78;4941917;28;46035;-65
2022/11/03 11:53:22;;;;;;;;;6.25;4.25;;;;;16.41;55.94;99925.56;4942203;28;45298;-65
2022/11/03 11:55:50;;;;;;;;;4.00;4.00;;;;;16.47;56.30;99917.28;4942216;28;45343;-65
2022/11/03 11:58:40;;;;;;;;;7.50;6.00;;;;;16.43;56.38;99910.44;4941913;28;45501;-65